createdAt,value
2022-08-17T00:00:57.543Z,151557.69
2022-08-17T00:02:01.555Z,151513.72
2022-08-17T00:03:24.112Z,151611.53
2022-08-17T00:04:26.325Z,151499.00
2022-08-17T00:05:35.191Z,151555.25
2022-08-17T00:06:37.434Z,151491.69
2022-08-17T00:07:39.691Z,151484.38
2022-08-17T00:08:45.401Z,151546.72
2022-08-17T00:09:47.711Z,151474.59
2022-08-17T00:10:51.040Z,151507.59
2022-08-17T00:12:41.807Z,151472.16
2022-08-17T00:13:21.377Z,151582.19
2022-08-17T00:14:23.712Z,151481.94
2022-08-17T00:15:26.387Z,151468.50
2022-08-17T00:16:52.589Z,151530.78
2022-08-17T00:17:57.196Z,151470.94
2022-08-17T00:19:08.392Z,151511.25
2022-08-17T00:20:12.077Z,151491.69
2022-08-17T00:21:16.055Z,151501.50
2022-08-17T00:22:34.493Z,151462.34
2022-08-17T00:23:44.473Z,151499.00
2022-08-17T00:24:51.558Z,151452.59
2022-08-17T00:25:54.240Z,151461.13
2022-08-17T00:26:56.437Z,151434.25
2022-08-17T00:27:58.629Z,151429.38
2022-08-17T00:29:02.919Z,151426.94
2022-08-17T00:30:08.127Z,151479.50
2022-08-17T00:31:11.762Z,151467.25
2022-08-17T00:33:12.041Z,151437.97
2022-08-17T00:33:38.184Z,151447.72
2022-08-17T00:34:40.369Z,151409.78
2022-08-17T00:35:43.147Z,151430.59
2022-08-17T00:36:45.403Z,151407.34
2022-08-17T00:37:47.578Z,151406.13
2022-08-17T00:38:50.370Z,151418.38
2022-08-17T00:39:52.663Z,151397.56
2022-08-17T00:41:02.388Z,151477.06
2022-08-17T00:42:15.985Z,151477.06
2022-08-17T00:43:20.181Z,151450.16
2022-08-17T00:44:22.589Z,151386.56
2022-08-17T00:45:32.691Z,151380.47
2022-08-17T00:46:39.279Z,151439.19
2022-08-17T00:47:42.277Z,151393.88
2022-08-17T00:48:45.261Z,151409.78
2022-08-17T00:49:47.476Z,151414.72
2022-08-17T00:51:07.102Z,151521.03
2022-08-17T00:52:19.060Z,151513.72
2022-08-17T00:53:22.243Z,151419.59
2022-08-17T00:54:30.366Z,151444.06
2022-08-17T00:55:32.957Z,151369.50
2022-08-17T00:56:41.297Z,151414.72
2022-08-17T00:57:46.860Z,151403.69
2022-08-17T00:58:52.289Z,151411.00
2022-08-17T01:00:02.015Z,151401.22
2022-08-17T01:01:08.540Z,151387.78
2022-08-17T01:02:14.107Z,151393.88
2022-08-17T01:03:25.339Z,151415.94
2022-08-17T01:04:29.358Z,151380.47
2022-08-17T01:05:34.598Z,151381.69
2022-08-17T01:06:37.447Z,151356.03
2022-08-17T01:07:40.610Z,151314.50
2022-08-17T01:08:43.114Z,151316.94
2022-08-17T01:09:45.366Z,151314.50
2022-08-17T01:10:58.587Z,151374.38
2022-08-17T01:12:08.475Z,151379.25
2022-08-17T01:13:12.322Z,151349.91
2022-08-17T01:14:14.556Z,151301.03
2022-08-17T01:15:16.906Z,151319.38
2022-08-17T01:16:24.145Z,151378.03
2022-08-17T01:17:28.977Z,151305.97
2022-08-17T01:18:32.847Z,151335.22
2022-08-17T01:19:39.264Z,151364.56
2022-08-17T01:20:48.443Z,151371.94
2022-08-17T01:21:58.204Z,151370.72
2022-08-17T01:23:02.188Z,151298.59
2022-08-17T01:24:04.656Z,151305.97
2022-08-17T01:25:08.851Z,151340.16
2022-08-17T01:26:11.027Z,151269.28
2022-08-17T01:27:16.221Z,151308.41
2022-08-17T01:28:33.607Z,151298.59
2022-08-17T01:29:48.366Z,151312.06
2022-08-17T01:30:58.275Z,151303.47
2022-08-17T01:32:04.935Z,151297.38
2022-08-17T01:33:11.350Z,151242.38
2022-08-17T01:34:16.086Z,151291.28
2022-08-17T01:35:18.622Z,151239.94
2022-08-17T01:36:21.375Z,151225.25
2022-08-17T01:37:34.409Z,151310.84
2022-08-17T01:38:38.826Z,151279.06
2022-08-17T01:39:57.642Z,151331.56
2022-08-17T01:41:12.367Z,151319.38
2022-08-17T01:42:30.731Z,151334.00
2022-08-17T01:43:38.982Z,151298.59
2022-08-17T01:44:41.561Z,151244.81
2022-08-17T01:45:49.855Z,151312.06
2022-08-17T01:47:06.160Z,151232.59
2022-08-17T01:48:08.527Z,151224.03
2022-08-17T01:49:12.793Z,151270.50
2022-08-17T01:50:18.936Z,151281.50
2022-08-17T01:51:21.261Z,151227.72
2022-08-17T01:52:23.824Z,151217.94
2022-08-17T01:53:34.971Z,151303.47
2022-08-17T01:54:39.784Z,151259.50
2022-08-17T01:56:00.083Z,151305.97
2022-08-17T01:57:02.327Z,151208.19
2022-08-17T01:58:08.902Z,151225.25
2022-08-17T01:59:12.290Z,151230.16
2022-08-17T02:00:16.026Z,151233.81
2022-08-17T02:01:21.692Z,151261.94
2022-08-17T02:02:30.370Z,151206.97
2022-08-17T02:03:35.050Z,151248.47
2022-08-17T02:04:37.272Z,151205.75
2022-08-17T02:05:40.469Z,151226.47
2022-08-17T02:06:52.930Z,151200.81
2022-08-17T02:08:00.534Z,151191.06
2022-08-17T02:09:04.361Z,151232.59
2022-08-17T02:10:20.000Z,151241.16
2022-08-17T02:11:22.717Z,151186.19
2022-08-17T02:12:38.896Z,151183.75
2022-08-17T02:13:43.123Z,151210.63
2022-08-17T02:14:45.350Z,151181.31
2022-08-17T02:15:47.574Z,151178.88
2022-08-17T02:16:49.920Z,151181.31
2022-08-17T02:17:54.868Z,151175.22
2022-08-17T02:18:57.204Z,151176.44
2022-08-17T02:19:59.397Z,151169.06
2022-08-17T02:21:01.728Z,151178.88
2022-08-17T02:22:04.047Z,151174.00
2022-08-17T02:23:10.879Z,151215.50
2022-08-17T02:24:17.842Z,151247.28
2022-08-17T02:25:43.541Z,151237.47
2022-08-17T02:26:47.260Z,151170.28
2022-08-17T02:27:49.457Z,151172.78
2022-08-17T02:28:51.639Z,151167.84
2022-08-17T02:29:54.017Z,151177.66
2022-08-17T02:31:00.646Z,151220.38
2022-08-17T02:32:05.250Z,151199.59
2022-08-17T02:33:09.415Z,151170.28
2022-08-17T02:34:12.493Z,151183.75
2022-08-17T02:35:14.802Z,151169.06
2022-08-17T02:36:26.829Z,151161.75
2022-08-17T02:37:30.963Z,151193.50
2022-08-17T02:38:33.102Z,151153.22
2022-08-17T02:39:35.304Z,151149.56
2022-08-17T02:40:40.559Z,151154.44
2022-08-17T02:41:43.715Z,151149.56
2022-08-17T02:42:46.196Z,151145.91
2022-08-17T02:43:48.409Z,151144.69
2022-08-17T02:44:50.762Z,151139.81
2022-08-17T02:45:54.081Z,151174.00
2022-08-17T02:46:56.486Z,151148.34
2022-08-17T02:47:58.725Z,151144.69
2022-08-17T02:49:00.979Z,151147.13
2022-08-17T02:50:05.017Z,151191.06
2022-08-17T02:51:07.205Z,151147.13
2022-08-17T02:52:09.433Z,151152.00
2022-08-17T02:53:11.729Z,151147.13
2022-08-17T02:54:41.291Z,151154.44
2022-08-17T02:55:40.265Z,151219.16
2022-08-17T02:56:42.868Z,151178.88
2022-08-17T02:57:45.370Z,151175.22
2022-08-17T02:58:47.566Z,151147.13
2022-08-17T02:59:49.787Z,151159.31
2022-08-17T03:00:51.979Z,151164.19
2022-08-17T03:01:54.231Z,151164.19
2022-08-17T03:02:57.810Z,151205.75
2022-08-17T03:04:00.689Z,151170.28
2022-08-17T03:05:02.995Z,151170.28
2022-08-17T03:06:07.330Z,151193.50
2022-08-17T03:07:09.702Z,151169.06
2022-08-17T03:08:13.420Z,151193.50
2022-08-17T03:09:16.799Z,151177.66
2022-08-17T03:10:20.148Z,151205.75
2022-08-17T03:11:22.358Z,151186.19
2022-08-17T03:12:24.563Z,151187.41
2022-08-17T03:13:27.514Z,151187.41
2022-08-17T03:14:32.177Z,151171.50
2022-08-17T03:15:34.974Z,151166.63
2022-08-17T03:16:37.193Z,151161.75
2022-08-17T03:17:42.004Z,151160.53
2022-08-17T03:18:44.201Z,151149.56
2022-08-17T03:19:46.368Z,151147.13
2022-08-17T03:20:48.830Z,151142.25
2022-08-17T03:21:55.209Z,151144.69
2022-08-17T03:23:02.654Z,151167.84
2022-08-17T03:24:08.967Z,151152.00
2022-08-17T03:25:14.976Z,151193.50
2022-08-17T03:26:21.775Z,151145.91
2022-08-17T03:27:24.028Z,151147.13
2022-08-17T03:28:28.200Z,151174.00
2022-08-17T03:29:30.379Z,151139.81
2022-08-17T03:30:33.254Z,151172.78
2022-08-17T03:31:36.915Z,151137.31
2022-08-17T03:32:42.632Z,151199.59
2022-08-17T03:33:44.887Z,151137.31
2022-08-17T03:34:47.179Z,151147.13
2022-08-17T03:35:49.564Z,151152.00
2022-08-17T03:36:51.759Z,151126.34
2022-08-17T03:38:00.125Z,151174.00
2022-08-17T03:39:03.823Z,151139.81
2022-08-17T03:40:07.931Z,151154.44
2022-08-17T03:41:10.197Z,151114.16
2022-08-17T03:42:31.492Z,151199.59
2022-08-17T03:43:34.879Z,151134.88
2022-08-17T03:44:37.036Z,151136.09
2022-08-17T03:45:58.848Z,151143.47
2022-08-17T03:47:19.604Z,151161.75
2022-08-17T03:48:40.855Z,151167.84
2022-08-17T03:50:01.484Z,151144.69
2022-08-17T03:51:22.394Z,151139.81
2022-08-17T03:52:42.982Z,151137.31
2022-08-17T03:54:11.836Z,151200.81
2022-08-17T03:55:35.966Z,151134.88
2022-08-17T03:56:45.034Z,151137.31
2022-08-17T03:57:48.871Z,151125.13
2022-08-17T03:58:51.067Z,151117.81
2022-08-17T03:59:54.155Z,151161.75
2022-08-17T04:00:56.454Z,151110.50
2022-08-17T04:02:03.845Z,151184.97
2022-08-17T04:03:06.562Z,151110.50
2022-08-17T04:04:11.792Z,151117.81
2022-08-17T04:05:15.215Z,151126.34
2022-08-17T04:06:17.440Z,151105.56
2022-08-17T04:07:21.840Z,149759.53
2022-08-17T04:08:24.140Z,151098.25
2022-08-17T04:09:26.471Z,151111.72
2022-08-17T04:10:30.207Z,151119.03
2022-08-17T04:12:58.422Z,146645.97
2022-08-17T04:14:01.404Z,143892.88
2022-08-17T04:15:03.858Z,144233.25
2022-08-17T04:16:06.242Z,148974.78
2022-08-17T04:17:08.616Z,147663.81
2022-08-17T04:18:11.064Z,149423.53
2022-08-17T04:19:13.373Z,150839.09
2022-08-17T04:20:18.651Z,151145.91
2022-08-17T04:21:21.405Z,149948.28
2022-08-17T04:22:31.882Z,151114.16
2022-08-17T04:23:37.833Z,151083.56
2022-08-17T04:24:40.017Z,151072.56
2022-08-17T04:25:45.682Z,149463.31
2022-08-17T04:26:52.047Z,150960.94
2022-08-17T04:27:56.917Z,149216.72
2022-08-17T04:28:59.329Z,141478.59
2022-08-17T04:30:02.697Z,147830.63
2022-08-17T04:31:05.030Z,150225.19
2022-08-17T04:32:08.981Z,150225.19
2022-08-17T04:33:14.967Z,150984.44
2022-08-17T04:34:19.700Z,151100.69
2022-08-17T04:35:30.262Z,151162.97
2022-08-17T04:36:34.839Z,151106.84
2022-08-17T04:37:37.082Z,151105.56
2022-08-17T04:38:42.236Z,151137.31
2022-08-17T04:40:04.643Z,151090.94
2022-08-17T04:41:27.062Z,151149.56
2022-08-17T04:42:29.379Z,151127.56
2022-08-17T04:43:32.989Z,151186.19
2022-08-17T04:44:36.881Z,151127.56
2022-08-17T04:45:55.295Z,151174.00
2022-08-17T04:46:58.671Z,151116.59
2022-08-17T04:48:01.184Z,151122.69
2022-08-17T04:49:09.313Z,151193.50
2022-08-17T04:50:11.602Z,151119.03
2022-08-17T04:51:32.689Z,150842.44
2022-08-17T04:52:45.522Z,151222.81
2022-08-17T04:53:54.712Z,151188.63
2022-08-17T04:54:57.301Z,151086.00
2022-08-17T04:55:59.542Z,151120.25
2022-08-17T04:57:01.772Z,151112.94
2022-08-17T04:58:04.329Z,151132.44
2022-08-17T04:59:10.009Z,151189.84
2022-08-17T05:00:12.658Z,151161.75
2022-08-17T05:01:16.314Z,151188.63
2022-08-17T05:02:25.567Z,151274.19
2022-08-17T05:03:28.123Z,151172.78
2022-08-17T05:04:34.122Z,151148.34
2022-08-17T05:05:43.310Z,151213.06
2022-08-17T05:06:46.693Z,151200.81
2022-08-17T05:07:54.418Z,151257.06
2022-08-17T05:08:58.007Z,151225.25
2022-08-17T05:10:00.346Z,151195.94
2022-08-17T05:11:02.651Z,151180.09
2022-08-17T05:12:05.983Z,151188.63
2022-08-17T05:13:19.015Z,151259.50
2022-08-17T05:14:21.847Z,151204.47
2022-08-17T05:15:37.046Z,151261.94
2022-08-17T05:16:49.350Z,151271.75
2022-08-17T05:17:51.599Z,151205.75
2022-08-17T05:18:54.162Z,151216.72
2022-08-17T05:19:56.356Z,151235.03
2022-08-17T05:20:58.701Z,151242.38
2022-08-17T05:22:05.580Z,151335.22
2022-08-17T05:23:11.580Z,151325.47
2022-08-17T05:24:35.381Z,151244.81
2022-08-17T05:25:43.174Z,151340.16
2022-08-17T05:26:50.066Z,151279.06
2022-08-17T05:27:55.221Z,151327.91
2022-08-17T05:29:02.570Z,151348.69
2022-08-17T05:30:05.639Z,151303.47
2022-08-17T05:31:07.989Z,151281.50
2022-08-17T05:32:38.921Z,151335.22
2022-08-17T05:33:38.206Z,151379.25
2022-08-17T05:34:42.663Z,151326.69
2022-08-17T05:35:47.855Z,151382.91
2022-08-17T05:36:50.017Z,151337.72
2022-08-17T05:37:53.277Z,151294.94
2022-08-17T05:38:58.885Z,151316.94
2022-08-17T05:40:01.183Z,151310.84
2022-08-17T05:41:05.967Z,151376.81
2022-08-17T05:42:09.184Z,151349.91
2022-08-17T05:43:16.117Z,151323.03
2022-08-17T05:44:18.327Z,151298.59
2022-08-17T05:45:46.089Z,151356.03
2022-08-17T05:46:49.341Z,151384.13
2022-08-17T05:47:51.785Z,151352.34
2022-08-17T05:49:02.509Z,151411.00
2022-08-17T05:50:09.517Z,151466.03
2022-08-17T05:51:39.427Z,151499.00
2022-08-17T05:52:53.735Z,151481.94
2022-08-17T05:54:20.731Z,151513.72
2022-08-17T05:56:04.178Z,151547.94
2022-08-17T05:57:34.390Z,151589.53
2022-08-17T05:58:48.495Z,151556.47
2022-08-17T06:00:09.940Z,151580.97
2022-08-17T06:01:27.237Z,151562.56
2022-08-17T06:02:53.007Z,151587.06
2022-08-17T06:04:16.659Z,151621.31
2022-08-17T06:05:31.075Z,151601.78
2022-08-17T06:06:40.291Z,151511.25
2022-08-17T06:08:06.736Z,151655.53
2022-08-17T06:09:33.867Z,151675.09
2022-08-17T06:10:58.938Z,151682.44
2022-08-17T06:12:25.821Z,151738.72
2022-08-17T06:13:55.787Z,151763.16
2022-08-17T06:15:24.949Z,151708.13
2022-08-17T06:16:36.366Z,151604.22
2022-08-17T06:17:39.144Z,151539.38
2022-08-17T06:18:46.994Z,151589.53
2022-08-17T06:19:52.800Z,151494.13
2022-08-17T06:21:00.472Z,151583.41
2022-08-17T06:22:05.771Z,151450.16
2022-08-17T06:23:14.408Z,151506.38
2022-08-17T06:24:35.277Z,151521.03
2022-08-17T06:25:46.823Z,151574.88
2022-08-17T06:26:50.251Z,151506.38
2022-08-17T06:28:05.382Z,151594.41
2022-08-17T06:29:28.464Z,151594.41
2022-08-17T06:31:00.239Z,151578.53
2022-08-17T06:32:00.091Z,151543.03
2022-08-17T06:33:07.942Z,151636.00
2022-08-17T06:34:12.593Z,151636.00
2022-08-17T06:35:22.065Z,151717.88
2022-08-17T06:36:37.905Z,151786.41
2022-08-17T06:38:07.396Z,151897.78
2022-08-17T06:39:36.990Z,151944.22
2022-08-17T06:41:00.852Z,152002.97
2022-08-17T06:43:02.776Z,152060.47
2022-08-17T06:43:51.228Z,152020.13
2022-08-17T06:45:15.314Z,152208.63
2022-08-17T06:46:35.222Z,152296.75
2022-08-17T06:47:47.470Z,152411.88
2022-08-17T06:49:11.605Z,152542.94
2022-08-17T06:50:36.005Z,152508.66
2022-08-17T06:51:41.506Z,152566.22
2022-08-17T06:53:09.722Z,152596.88
2022-08-17T06:54:45.803Z,152549.06
2022-08-17T06:56:10.536Z,152547.81
2022-08-17T06:57:19.670Z,152573.59
2022-08-17T06:58:29.558Z,152453.53
2022-08-17T06:59:55.204Z,152432.69
2022-08-17T07:01:08.380Z,152465.81
2022-08-17T07:02:18.388Z,152492.75
2022-08-17T07:03:37.745Z,152585.84
2022-08-17T07:04:41.335Z,152509.88
2022-08-17T07:05:54.897Z,152655.69
2022-08-17T07:07:27.625Z,152696.09
2022-08-17T07:08:51.156Z,152799.06
2022-08-17T07:09:55.462Z,152846.88
2022-08-17T07:11:02.591Z,152753.69
2022-08-17T07:12:43.212Z,152813.75
2022-08-17T07:13:57.449Z,152970.72
2022-08-17T07:15:07.653Z,152985.41
2022-08-17T07:16:33.817Z,153162.00
2022-08-17T07:17:46.554Z,153052.88
2022-08-17T07:18:53.120Z,153202.47
2022-08-17T07:20:15.203Z,153245.41
2022-08-17T07:21:29.209Z,153341.13
2022-08-17T07:22:57.196Z,153331.28
2022-08-17T07:24:30.871Z,153397.56
2022-08-17T07:25:33.225Z,153417.19
2022-08-17T07:26:35.519Z,153392.66
2022-08-17T07:27:45.290Z,153596.41
2022-08-17T07:28:47.962Z,153499.41
2022-08-17T07:29:54.415Z,153602.53
2022-08-17T07:30:56.616Z,153584.13
2022-08-17T07:31:59.213Z,153562.00
2022-08-17T07:33:12.551Z,153439.25
2022-08-17T07:34:15.818Z,153374.25
2022-08-17T07:35:37.534Z,153528.88
2022-08-17T07:36:42.895Z,153272.41
2022-08-17T07:37:55.639Z,153323.94
2022-08-17T07:38:58.321Z,153252.81
2022-08-17T07:40:20.945Z,153301.84
2022-08-17T07:41:23.931Z,153211.03
2022-08-17T07:42:26.201Z,153262.59
2022-08-17T07:43:36.883Z,153252.81
2022-08-17T07:44:49.420Z,153348.47
2022-08-17T07:46:45.076Z,153364.44
2022-08-17T07:48:10.547Z,153310.41
2022-08-17T07:49:22.098Z,153284.69
2022-08-17T07:50:28.023Z,153332.50
2022-08-17T07:51:37.943Z,153387.75
2022-08-17T07:52:51.366Z,153369.34
2022-08-17T07:54:13.134Z,153315.31
2022-08-17T07:55:29.394Z,153301.84
2022-08-17T07:56:34.650Z,153139.94
2022-08-17T07:57:37.197Z,153170.56
2022-08-17T07:58:39.513Z,153206.13
2022-08-17T08:00:03.230Z,153203.69
2022-08-17T08:01:15.542Z,153148.50
2022-08-17T08:02:34.199Z,153196.34
2022-08-17T08:03:44.804Z,153239.28
2022-08-17T08:05:06.749Z,153206.13
2022-08-17T08:06:20.941Z,153157.13
2022-08-17T08:07:26.787Z,153147.28
2022-08-17T08:08:29.118Z,153081.03
2022-08-17T08:09:34.249Z,153095.81
2022-08-17T08:10:42.852Z,152981.72
2022-08-17T08:11:48.417Z,152902.03
2022-08-17T08:13:05.709Z,153059.00
2022-08-17T08:14:42.092Z,153094.56
2022-08-17T08:15:54.623Z,153083.47
2022-08-17T08:17:03.332Z,153162.00
2022-08-17T08:18:53.773Z,153142.38
2022-08-17T08:19:45.753Z,152902.03
2022-08-17T08:20:59.097Z,152995.25
2022-08-17T08:22:34.919Z,153002.59
2022-08-17T08:23:37.248Z,152914.28
2022-08-17T08:24:51.428Z,153051.59
2022-08-17T08:26:30.984Z,153059.00
2022-08-17T08:28:10.812Z,152975.59
2022-08-17T08:29:49.802Z,152938.81
2022-08-17T08:31:03.442Z,152933.91
2022-08-17T08:32:15.453Z,152990.34
2022-08-17T08:33:34.571Z,153002.59
2022-08-17T08:35:13.067Z,153052.88
2022-08-17T08:37:12.748Z,153057.75
2022-08-17T08:38:53.558Z,153062.66
2022-08-17T08:40:13.350Z,153073.69
2022-08-17T08:42:07.556Z,153177.94
2022-08-17T08:43:37.396Z,153334.94
2022-08-17T08:45:04.700Z,153330.06
2022-08-17T08:46:13.669Z,153252.81
2022-08-17T08:47:37.476Z,153233.16
2022-08-17T08:48:59.617Z,153402.44
2022-08-17T08:50:37.291Z,153446.59
2022-08-17T08:51:56.904Z,153466.28
2022-08-17T08:53:11.525Z,153498.19
2022-08-17T08:54:13.761Z,153363.22
2022-08-17T08:55:27.400Z,153419.66
2022-08-17T08:57:23.327Z,153366.88
2022-08-17T08:58:31.498Z,153166.91
2022-08-17T09:00:19.245Z,153375.47
2022-08-17T09:01:28.559Z,153388.97
2022-08-17T09:02:45.814Z,153484.72
2022-08-17T09:04:10.891Z,153487.16
2022-08-17T09:05:36.885Z,153613.53
2022-08-17T09:06:48.875Z,153700.75
2022-08-17T09:08:16.374Z,153853.00
2022-08-17T09:09:50.762Z,153997.91
2022-08-17T09:10:59.863Z,153911.94
2022-08-17T09:12:13.760Z,153916.84
2022-08-17T09:13:22.667Z,153870.16
2022-08-17T09:15:08.310Z,153903.31
2022-08-17T09:16:23.080Z,153988.09
2022-08-17T09:17:38.242Z,154067.94
2022-08-17T09:19:03.191Z,154063.03
2022-08-17T09:20:28.026Z,154098.63
2022-08-17T09:21:47.930Z,154117.06
2022-08-17T09:23:08.225Z,154097.41
2022-08-17T09:24:20.713Z,153940.19
2022-08-17T09:25:31.463Z,154090.06
2022-08-17T09:26:40.004Z,154178.53
2022-08-17T09:28:00.651Z,154188.34
2022-08-17T09:29:08.627Z,154289.13
2022-08-17T09:30:11.914Z,154294.03
2022-08-17T09:31:49.708Z,154421.84
2022-08-17T09:33:01.879Z,154597.66
2022-08-17T09:34:16.562Z,154654.19
2022-08-17T09:35:36.766Z,154660.34
2022-08-17T09:36:45.187Z,154726.75
2022-08-17T09:38:25.585Z,154793.13
2022-08-17T09:39:54.316Z,154881.72
2022-08-17T09:41:06.325Z,154828.81
2022-08-17T09:42:37.280Z,154576.75
2022-08-17T09:44:10.750Z,154573.00
2022-08-17T09:45:42.787Z,154646.84
2022-08-17T09:46:53.456Z,154526.31
2022-08-17T09:48:14.331Z,154576.75
2022-08-17T09:49:33.362Z,154635.75
2022-08-17T09:51:03.441Z,154543.56
2022-08-17T09:52:20.477Z,154498.06
2022-08-17T09:53:22.761Z,154462.38
2022-08-17T09:54:39.044Z,154482.09
2022-08-17T09:56:00.175Z,154450.13
2022-08-17T09:57:31.978Z,154500.50
2022-08-17T09:58:47.633Z,154485.78
2022-08-17T10:00:11.717Z,154493.16
2022-08-17T10:01:41.424Z,154448.88
2022-08-17T10:03:21.017Z,154404.63
2022-08-17T10:04:29.552Z,154237.47
2022-08-17T10:05:48.035Z,154231.31
2022-08-17T10:07:24.992Z,154239.91
2022-08-17T10:08:58.401Z,154269.44
2022-08-17T10:10:16.666Z,154225.19
2022-08-17T10:11:52.080Z,154294.03
2022-08-17T10:15:08.123Z,154862.03
2022-08-17T10:16:25.362Z,155008.47
2022-08-17T10:17:50.606Z,155135.16
2022-08-17T10:19:10.761Z,154974.00
2022-08-17T10:20:20.381Z,155146.25
2022-08-17T10:21:42.334Z,155189.28
2022-08-17T10:23:15.468Z,155296.34
2022-08-17T10:25:21.290Z,155297.56
2022-08-17T10:26:20.964Z,155514.28
2022-08-17T10:27:29.309Z,155435.44
2022-08-17T10:28:39.507Z,155532.72
2022-08-17T10:29:59.196Z,155657.06
2022-08-17T10:31:33.292Z,155689.06
2022-08-17T10:32:49.454Z,155682.94
2022-08-17T10:34:18.928Z,155713.75
2022-08-17T10:35:45.700Z,155680.47
2022-08-17T10:37:09.833Z,155653.38
2022-08-17T10:38:37.627Z,155569.66
2022-08-17T10:39:54.693Z,155410.88
2022-08-17T10:41:15.289Z,155329.59
2022-08-17T10:42:30.311Z,155177.00
2022-08-17T10:44:38.043Z,155255.75
2022-08-17T10:45:28.167Z,155207.81
2022-08-17T10:46:52.329Z,155479.78
2022-08-17T10:48:07.323Z,155511.81
2022-08-17T10:49:18.301Z,155445.31
2022-08-17T10:50:57.778Z,155354.22
2022-08-17T10:52:21.962Z,155322.22
2022-08-17T10:53:48.485Z,155349.31
2022-08-17T10:54:50.596Z,155100.66
2022-08-17T10:56:11.967Z,154860.78
2022-08-17T10:57:34.584Z,154878.03
2022-08-17T10:58:57.305Z,154666.47
2022-08-17T11:00:06.919Z,154632.06
2022-08-17T11:01:12.491Z,154490.69
2022-08-17T11:02:26.167Z,154534.91
2022-08-17T11:03:28.562Z,154426.75
2022-08-17T11:04:49.956Z,154525.09
2022-08-17T11:06:04.035Z,154500.50
2022-08-17T11:07:25.767Z,154630.81
2022-08-17T11:08:49.368Z,154675.09
2022-08-17T11:10:16.262Z,154621.00
2022-08-17T11:11:36.599Z,154656.66
2022-08-17T11:13:01.327Z,154688.59
2022-08-17T11:14:32.450Z,154676.34
2022-08-17T11:16:28.513Z,154764.84
2022-08-17T11:17:51.282Z,154709.56
2022-08-17T11:19:08.590Z,154772.22
2022-08-17T11:20:52.640Z,154884.16
2022-08-17T11:22:22.500Z,154989.94
2022-08-17T11:23:39.906Z,155087.16
2022-08-17T11:24:53.215Z,155083.47
2022-08-17T11:25:57.641Z,155085.94
2022-08-17T11:27:22.368Z,155263.13
2022-08-17T11:28:35.840Z,155305.03
2022-08-17T11:30:10.945Z,155373.91
2022-08-17T11:31:39.292Z,155403.50
2022-08-17T11:32:54.525Z,155375.16
2022-08-17T11:34:02.275Z,155457.63
2022-08-17T11:35:07.471Z,155332.06
2022-08-17T11:36:22.483Z,155400.97
2022-08-17T11:37:29.619Z,155474.88
2022-08-17T11:38:49.269Z,155356.69
2022-08-17T11:40:18.005Z,155458.84
2022-08-17T11:41:48.862Z,155425.63
2022-08-17T11:43:08.804Z,155408.41
2022-08-17T11:44:39.811Z,155383.75
2022-08-17T11:46:06.870Z,155398.50
2022-08-17T11:48:02.486Z,155292.66
2022-08-17T11:50:03.962Z,155368.97
2022-08-17T11:51:27.370Z,155376.38
2022-08-17T11:52:47.053Z,155354.22
2022-08-17T11:53:50.022Z,155334.50
2022-08-17T11:54:52.330Z,155367.72
2022-08-17T11:55:57.293Z,155404.72
2022-08-17T11:57:21.476Z,155302.47
2022-08-17T11:58:29.683Z,155142.56
2022-08-17T11:59:35.891Z,155104.44
2022-08-17T12:00:59.671Z,155216.41
2022-08-17T12:02:04.466Z,155184.38
2022-08-17T12:03:26.384Z,155164.66
2022-08-17T12:04:30.385Z,155148.69
2022-08-17T12:05:34.130Z,154999.78
2022-08-17T12:06:50.429Z,155046.59
2022-08-17T12:08:18.506Z,155056.41
2022-08-17T12:09:25.079Z,154945.69
2022-08-17T12:10:34.284Z,154970.25
2022-08-17T12:12:13.242Z,155133.91
2022-08-17T12:13:17.560Z,154983.81
2022-08-17T12:14:45.011Z,155122.88
2022-08-17T12:15:52.769Z,155206.56
2022-08-17T12:17:04.435Z,155258.22
2022-08-17T12:18:06.728Z,155084.69
2022-08-17T12:19:19.321Z,155195.44
2022-08-17T12:20:27.780Z,155354.22
2022-08-17T12:21:33.026Z,155194.19
2022-08-17T12:22:54.756Z,155376.38
2022-08-17T12:24:13.253Z,155494.53
2022-08-17T12:25:25.882Z,155634.91
2022-08-17T12:26:33.933Z,155639.88
2022-08-17T12:28:01.339Z,155607.88
2022-08-17T12:29:06.903Z,155588.09
2022-08-17T12:30:15.729Z,155600.44
2022-08-17T12:31:27.189Z,155583.19
2022-08-17T12:32:34.110Z,155479.78
2022-08-17T12:33:37.301Z,155423.16
2022-08-17T12:34:42.903Z,155442.88
2022-08-17T12:35:46.411Z,155403.50
2022-08-17T12:36:51.045Z,155425.63
2022-08-17T12:37:53.406Z,155256.97
2022-08-17T12:39:13.878Z,155245.94
2022-08-17T12:40:22.594Z,155275.44
2022-08-17T12:41:38.430Z,155265.59
2022-08-17T12:42:52.971Z,154903.84
2022-08-17T12:44:03.479Z,154987.50
2022-08-17T12:45:08.413Z,155007.25
2022-08-17T12:46:17.078Z,154930.91
2022-08-17T12:47:23.014Z,154826.38
2022-08-17T12:48:28.087Z,154774.72
2022-08-17T12:49:36.895Z,154810.41
2022-08-17T12:50:43.655Z,154843.59
2022-08-17T12:51:47.731Z,154831.28
2022-08-17T12:52:50.950Z,154815.31
2022-08-17T12:53:57.871Z,154696.03
2022-08-17T12:55:21.175Z,154827.59
2022-08-17T12:56:23.561Z,154587.81
2022-08-17T12:57:43.598Z,154581.66
2022-08-17T12:58:53.428Z,154547.22
2022-08-17T13:00:01.106Z,154530.00
2022-08-17T13:01:09.146Z,154477.16
2022-08-17T13:02:22.245Z,154544.78
2022-08-17T13:03:36.383Z,154495.59
2022-08-17T13:04:40.134Z,154480.88
2022-08-17T13:05:52.823Z,154419.38
2022-08-17T13:06:59.661Z,154360.38
2022-08-17T13:08:14.786Z,154500.50
2022-08-17T13:09:35.783Z,154537.38
2022-08-17T13:10:43.859Z,154376.41
2022-08-17T13:11:50.369Z,154376.41
2022-08-17T13:12:53.809Z,154370.19
2022-08-17T13:14:08.007Z,154367.72
2022-08-17T13:15:44.532Z,154429.19
2022-08-17T13:16:53.359Z,154345.63
2022-08-17T13:18:09.008Z,154361.59
2022-08-17T13:19:39.722Z,154366.50
2022-08-17T13:20:53.279Z,154418.16
2022-08-17T13:21:58.903Z,154402.16
2022-08-17T13:23:07.529Z,154407.06
2022-08-17T13:24:27.473Z,154399.72
2022-08-17T13:25:30.912Z,154367.72
2022-08-17T13:26:37.619Z,154402.16
2022-08-17T13:27:42.998Z,154429.19
2022-08-17T13:28:51.706Z,154355.44
2022-08-17T13:29:58.165Z,154335.78
2022-08-17T13:31:28.125Z,154367.72
2022-08-17T13:32:42.972Z,154397.25
2022-08-17T13:33:46.672Z,154335.78
2022-08-17T13:35:14.911Z,154308.75
2022-08-17T13:36:30.240Z,154340.69
2022-08-17T13:37:35.689Z,154301.38
2022-08-17T13:38:49.553Z,154366.50
2022-08-17T13:40:10.134Z,154367.72
2022-08-17T13:41:34.522Z,154408.31
2022-08-17T13:42:51.459Z,154414.47
2022-08-17T13:43:54.725Z,154375.13
2022-08-17T13:44:57.476Z,154488.25
2022-08-17T13:46:10.320Z,154597.66
2022-08-17T13:47:20.377Z,154591.50
2022-08-17T13:48:33.957Z,154568.09
2022-08-17T13:49:41.941Z,154448.88